Aeroporto :
LOGIN :

Iscrizione | Disclaimer

   EN    FR    IT 

 










Sommario :    VFR   VFR Marginale   IFR   IFR Intensivo   IFR Molto Intensivo
Visibilità : 
Base nubi : 
>= 8 km
>= 3000ft
5 / 8 km
1000 / 3000 ft
1500m / 5 km
500 / 1000 ft
800 / 1500m
200 / 500 ft
< 800m
< 200 ft
Simboli :   Temporali  Nebbia  Neve Forte  Precipitazioni Forti  Vento > 20 kt
SIGMETs :   Varie  Temporali  Ghiacco  Turbolenza  Onda orograficha  Ceneri Vulcaniche






- Altitudine del aeroporto : 13 ft
- Codice IATA : OST


EBOS - Oostend bruges Int.

ULTIMO METAR :
  • 281150Z 21007KT 8000 FEW004 10/08 Q1010 NOSIG

METARs OBSOLETI :
  • 281120Z 19005KT 160V220 6000 SCT004 09/08 Q1010 NOSIG
  • 281050Z 19005KT 160V230 6000 FEW002 SCT003 09/09 Q1010 NOSIG
  • 281020Z 20006KT 3200 BR FEW002 BKN003 08/08 Q1010 BECMG 6000 NSW SCT003
  • 280950Z 20006KT 0500 R08/0650U R26/0650N FG BKN002 08/08 Q1010 BECMG 1500 BR SCT002
  • 280920Z 21008KT 0350 R08/0450N R26/0500N FG BKN002 07/07 Q1010 BECMG 1500 BR SCT002

TAF TAF EBOS
Valido dal 28 a 12 ore il 29 a 18 ore UTC


281120Z 2812/2918 21005KT 8000 SCT020
PROB30
TEMPO 2812/2823 4000 SHRA BKN012TCU
BECMG 2818/2821 4000 BR
BECMG 2822/2901 1500
PROB40 2901/2909 0300 FG BKN001
BECMG 2911/2913 7000 NSW



MetMap, La meteo Aeronautica in un colpo d'occhio ! - Copyright ORBIFLY Dicembre 2007 - Disclaimer

ORBIFLY MET'MAP TEAM :

Programmazione e sviluppo : Alexandra Zaïnal
Concezione : Baudouin d'Aumeries
Supporto tecnico e logistico : Manuel Goepfert
Aiuto : Marc-Olivier Méhu
Aiuto per la traduzione : Arnaldo La Scala




FONTI E CREDITI :

   NOAA